Time;durP1;ratioP1;P1;durP2;ratioP2;P2;SDS_P1;SDS_P2;PMS_P1;PMS_P2;Temp;Humidity;BMP_temperature;BMP_pressure;BME280_temperature;BME280_humidity;BME280_pressure;Samples;Min_cycle;Max_cycle;Signal;HPM_P1;HPM_P2
2022/09/18 00:01:59;;;;;;;9.40;5.70;;;;;;;;;;110113;1252;36549;-30
2022/09/18 00:04:32;;;;;;;7.50;5.10;;;;;;;;;;110164;1253;34685;-30
2022/09/18 00:07:06;;;;;;;8.10;5.40;;;;;;;;;;110156;1252;36106;-30
2022/09/18 00:09:38;;;;;;;9.50;6.00;;;;;;;;;;110162;1253;36164;-30
2022/09/18 00:12:13;;;;;;;8.20;5.30;;;;;;;;;;110055;1253;36138;-30
2022/09/18 00:14:45;;;;;;;9.20;5.30;;;;;;;;;;110112;1252;36981;-30
2022/09/18 00:17:17;;;;;;;8.60;5.40;;;;;;;;;;110097;1252;36598;-30
2022/09/18 00:19:49;;;;;;;6.70;4.80;;;;;;;;;;110110;1253;36172;-30
2022/09/18 00:22:21;;;;;;;8.40;4.90;;;;;;;;;;110099;1253;33692;-30
2022/09/18 00:24:56;;;;;;;8.00;4.80;;;;;;;;;;110132;1252;34772;-30
2022/09/18 00:27:29;;;;;;;8.50;5.10;;;;;;;;;;110159;1252;35901;-30
2022/09/18 00:30:01;;;;;;;7.90;5.00;;;;;;;;;;110166;1253;36098;-30
2022/09/18 00:32:33;;;;;;;7.80;4.80;;;;;;;;;;110113;1253;36712;-30
2022/09/18 00:35:09;;;;;;;7.50;4.80;;;;;;;;;;110098;1253;36663;-30
2022/09/18 00:37:41;;;;;;;6.60;4.30;;;;;;;;;;110140;1252;33751;-30
2022/09/18 00:40:14;;;;;;;7.00;4.60;;;;;;;;;;110121;1252;36152;-30
2022/09/18 00:42:48;;;;;;;8.70;4.70;;;;;;;;;;110123;1252;36487;-30
2022/09/18 00:45:20;;;;;;;7.70;5.00;;;;;;;;;;110172;1253;33587;-30
2022/09/18 00:47:54;;;;;;;7.70;4.30;;;;;;;;;;110151;1252;36139;-30
2022/09/18 00:50:28;;;;;;;6.80;4.80;;;;;;;;;;110145;1252;34674;-30
2022/09/18 00:53:05;;;;;;;6.50;4.10;;;;;;;;;;110119;1253;36988;-30
2022/09/18 00:55:39;;;;;;;7.60;4.10;;;;;;;;;;110137;1252;37597;-30
2022/09/18 00:58:12;;;;;;;7.60;4.30;;;;;;;;;;110103;1253;36141;-30
2022/09/18 01:00:44;;;;;;;7.20;4.40;;;;;;;;;;110117;1252;36149;-30
2022/09/18 01:03:16;;;;;;;7.60;4.30;;;;;;;;;;110124;1252;36471;-30
2022/09/18 01:06:06;;;;;;;7.60;4.60;;;;;;;;;;110177;1253;35914;-30
2022/09/18 01:08:51;;;;;;;7.10;4.40;;;;;;;;;;110182;1253;36629;-31
2022/09/18 01:11:36;;;;;;;6.20;4.20;;;;;;;;;;110165;1253;34817;-30
2022/09/18 01:14:30;;;;;;;7.20;4.10;;;;;;;;;;110012;1253;36243;-30
2022/09/18 01:17:08;;;;;;;;;;;;;;;;;;110146;1252;36806;-30
2022/09/18 01:20:07;;;;;;;7.70;4.10;;;;;;;;;;110100;1252;36794;-30
2022/09/18 01:22:55;;;;;;;7.00;4.10;;;;;;;;;;110085;1252;33699;-30
2022/09/18 01:25:36;;;;;;;5.70;3.60;;;;;;;;;;110171;1252;36290;-30
2022/09/18 01:28:21;;;;;;;6.60;3.50;;;;;;;;;;110166;1252;36255;-30
2022/09/18 01:31:00;;;;;;;6.20;3.70;;;;;;;;;;110184;1252;36214;-30
2022/09/18 01:33:39;;;;;;;5.70;3.90;;;;;;;;;;110122;1252;34835;-30
2022/09/18 01:36:16;;;;;;;6.20;3.80;;;;;;;;;;110156;1252;34126;-30
2022/09/18 01:38:54;;;;;;;6.40;3.80;;;;;;;;;;110144;1252;34888;-30
2022/09/18 01:41:31;;;;;;;5.60;3.80;;;;;;;;;;110134;1253;36192;-30
2022/09/18 01:44:10;;;;;;;7.20;4.10;;;;;;;;;;110086;1252;36232;-30
2022/09/18 01:46:45;;;;;;;5.50;3.40;;;;;;;;;;110167;1253;36612;-30
2022/09/18 01:49:22;;;;;;;6.30;4.00;;;;;;;;;;110195;1253;34772;-30
2022/09/18 01:52:00;;;;;;;6.20;3.60;;;;;;;;;;110162;1253;34769;-30
2022/09/18 01:54:37;;;;;;;6.30;3.70;;;;;;;;;;110054;1252;36625;-30
2022/09/18 01:57:16;;;;;;;5.80;3.60;;;;;;;;;;110103;1252;35437;-30
2022/09/18 01:59:58;;;;;;;6.60;3.70;;;;;;;;;;110111;1252;36294;-30
2022/09/18 02:02:37;;;;;;;5.90;3.50;;;;;;;;;;110069;1253;34720;-30
2022/09/18 02:05:14;;;;;;;5.60;3.50;;;;;;;;;;110110;1253;36506;-30
2022/09/18 02:07:54;;;;;;;6.50;3.50;;;;;;;;;;110143;1253;33817;-30
2022/09/18 02:10:30;;;;;;;6.30;3.50;;;;;;;;;;110160;1252;34784;-30
2022/09/18 02:13:04;;;;;;;6.00;3.60;;;;;;;;;;110128;1253;36603;-30
2022/09/18 02:15:40;;;;;;;5.30;3.20;;;;;;;;;;110104;1253;36697;-30
2022/09/18 02:18:18;;;;;;;5.70;3.20;;;;;;;;;;110102;1253;34798;-30
2022/09/18 02:20:50;;;;;;;6.10;3.70;;;;;;;;;;110146;1252;33725;-30
2022/09/18 02:23:24;;;;;;;5.90;3.10;;;;;;;;;;110104;1252;36086;-30
2022/09/18 02:26:03;;;;;;;5.90;3.50;;;;;;;;;;110148;1253;36437;-30
2022/09/18 02:28:38;;;;;;;5.60;3.20;;;;;;;;;;110151;1253;33720;-30
2022/09/18 02:31:11;;;;;;;5.20;2.80;;;;;;;;;;110161;1253;34800;-30
2022/09/18 02:33:43;;;;;;;5.30;3.00;;;;;;;;;;110083;1252;33846;-30
2022/09/18 02:36:55;;;;;;;5.90;3.10;;;;;;;;;;110122;1253;36654;-30
2022/09/18 02:39:44;;;;;;;5.00;3.10;;;;;;;;;;109767;1253;36248;-30
2022/09/18 02:42:32;;;;;;;5.00;3.20;;;;;;;;;;110124;1253;36106;-30
2022/09/18 02:45:22;;;;;;;6.20;2.90;;;;;;;;;;110111;1252;36334;-31
2022/09/18 02:48:28;;;;;;;5.10;2.80;;;;;;;;;;110175;1252;36118;-30
2022/09/18 02:51:10;;;;;;;5.70;3.00;;;;;;;;;;110172;1253;36436;-30
2022/09/18 02:53:50;;;;;;;5.90;3.00;;;;;;;;;;110140;1252;36975;-30
2022/09/18 02:56:31;;;;;;;5.20;2.90;;;;;;;;;;110077;1252;34895;-30
2022/09/18 02:59:08;;;;;;;6.50;3.30;;;;;;;;;;110118;1253;36700;-30
2022/09/18 03:01:43;;;;;;;5.30;3.00;;;;;;;;;;110136;1252;36622;-30
2022/09/18 03:04:26;;;;;;;5.10;2.90;;;;;;;;;;110122;1252;34860;-30
2022/09/18 03:06:58;;;;;;;4.70;2.80;;;;;;;;;;110136;1253;37534;-30
2022/09/18 03:09:31;;;;;;;5.30;2.90;;;;;;;;;;110141;1253;36472;-30
2022/09/18 03:12:04;;;;;;;5.60;2.70;;;;;;;;;;110146;1253;36562;-30
2022/09/18 03:14:36;;;;;;;4.50;2.50;;;;;;;;;;110160;1253;36494;-30
2022/09/18 03:17:10;;;;;;;6.40;3.30;;;;;;;;;;110105;1253;33744;-30
2022/09/18 03:19:44;;;;;;;5.50;2.90;;;;;;;;;;110119;1252;37088;-30
2022/09/18 03:22:16;;;;;;;4.80;2.80;;;;;;;;;;110098;1252;36598;-30
2022/09/18 03:24:48;;;;;;;5.50;3.00;;;;;;;;;;110079;1252;34822;-30
2022/09/18 03:27:21;;;;;;;6.30;2.80;;;;;;;;;;110132;1252;36144;-30
2022/09/18 03:29:53;;;;;;;5.90;3.10;;;;;;;;;;110147;1253;36181;-30
2022/09/18 03:32:27;;;;;;;5.70;2.90;;;;;;;;;;110157;1252;36513;-30
2022/09/18 03:35:00;;;;;;;5.50;3.00;;;;;;;;;;110173;1253;34277;-30
2022/09/18 03:37:32;;;;;;;5.70;2.80;;;;;;;;;;110096;1253;36217;-30
2022/09/18 03:40:07;;;;;;;5.00;2.80;;;;;;;;;;110135;1252;36663;-30
2022/09/18 03:42:41;;;;;;;5.60;2.70;;;;;;;;;;110156;1252;36105;-30
2022/09/18 03:45:14;;;;;;;6.70;3.00;;;;;;;;;;110091;1252;36380;-30
2022/09/18 03:47:48;;;;;;;5.00;2.80;;;;;;;;;;110179;1253;36165;-30
2022/09/18 03:50:19;;;;;;;;;;;;;;;;;;110155;1253;36432;-30
2022/09/18 03:52:50;;;;;;;5.30;2.80;;;;;;;;;;110146;1252;34435;-30
2022/09/18 03:55:22;;;;;;;5.70;3.00;;;;;;;;;;110157;1253;36772;-30
2022/09/18 03:57:56;;;;;;;5.80;3.30;;;;;;;;;;110090;1252;37002;-30
2022/09/18 04:00:26;;;;;;;;;;;;;;;;;;110104;1252;36578;-30
2022/09/18 04:02:58;;;;;;;7.20;3.20;;;;;;;;;;110099;1252;34254;-30
2022/09/18 04:05:50;;;;;;;5.60;2.80;;;;;;;;;;110080;1252;34862;-30
2022/09/18 04:08:22;;;;;;;4.90;2.50;;;;;;;;;;110262;1254;34721;-30
2022/09/18 04:10:54;;;;;;;5.70;3.00;;;;;;;;;;110133;1253;36105;-30
2022/09/18 04:13:28;;;;;;;6.00;3.30;;;;;;;;;;110171;1253;36098;-30
2022/09/18 04:16:01;;;;;;;4.80;2.60;;;;;;;;;;110165;1252;36419;-30
2022/09/18 04:18:33;;;;;;;5.20;2.50;;;;;;;;;;110111;1252;36505;-30
2022/09/18 04:21:06;;;;;;;6.10;3.00;;;;;;;;;;110119;1253;36210;-30
2022/09/18 04:23:40;;;;;;;5.40;2.60;;;;;;;;;;110133;1253;36664;-30
2022/09/18 04:26:12;;;;;;;5.50;3.20;;;;;;;;;;110148;1253;36587;-32
2022/09/18 04:28:44;;;;;;;5.10;2.60;;;;;;;;;;110135;1253;36147;-32
2022/09/18 04:31:19;;;;;;;6.10;2.80;;;;;;;;;;110200;1253;36133;-32
2022/09/18 04:33:51;;;;;;;4.80;2.60;;;;;;;;;;110144;1254;36132;-32
2022/09/18 04:36:23;;;;;;;5.00;2.90;;;;;;;;;;110178;1253;37051;-32
2022/09/18 04:38:55;;;;;;;6.20;2.70;;;;;;;;;;110122;1253;36166;-33
2022/09/18 04:41:27;;;;;;;5.00;2.50;;;;;;;;;;110139;1253;37324;-32
2022/09/18 04:43:59;;;;;;;5.10;2.60;;;;;;;;;;110126;1253;36641;-32
2022/09/18 04:46:32;;;;;;;4.30;2.40;;;;;;;;;;110148;1253;36491;-32
2022/09/18 04:49:04;;;;;;;4.70;2.50;;;;;;;;;;110140;1253;37011;-32
2022/09/18 04:51:37;;;;;;;4.40;2.60;;;;;;;;;;110131;1253;33948;-32
2022/09/18 04:54:09;;;;;;;4.60;2.20;;;;;;;;;;110115;1253;36829;-32
2022/09/18 04:56:41;;;;;;;5.40;2.40;;;;;;;;;;110130;1253;36488;-32
2022/09/18 04:59:13;;;;;;;4.50;2.40;;;;;;;;;;110133;1252;33613;-32
2022/09/18 05:01:45;;;;;;;5.40;2.70;;;;;;;;;;110166;1252;36044;-32
2022/09/18 05:04:17;;;;;;;4.50;2.30;;;;;;;;;;110145;1253;36612;-32
2022/09/18 05:06:49;;;;;;;4.60;2.50;;;;;;;;;;110148;1253;33933;-32
2022/09/18 05:09:21;;;;;;;5.80;2.30;;;;;;;;;;110063;1253;34268;-32
2022/09/18 05:11:54;;;;;;;5.90;2.60;;;;;;;;;;110170;1253;36153;-32
2022/09/18 05:14:26;;;;;;;5.20;2.50;;;;;;;;;;110172;1253;36510;-32
2022/09/18 05:16:58;;;;;;;5.00;2.30;;;;;;;;;;110100;1252;36433;-32
2022/09/18 05:19:30;;;;;;;4.50;2.10;;;;;;;;;;109944;1254;36178;-32
2022/09/18 05:22:03;;;;;;;5.80;2.40;;;;;;;;;;110075;1253;36683;-32
2022/09/18 05:24:35;;;;;;;4.30;2.20;;;;;;;;;;110112;1252;36159;-32
2022/09/18 05:27:09;;;;;;;5.40;2.20;;;;;;;;;;110134;1253;35870;-32
2022/09/18 05:29:44;;;;;;;4.10;2.20;;;;;;;;;;110108;1254;36168;-32
2022/09/18 05:32:18;;;;;;;4.20;2.00;;;;;;;;;;110112;1252;36216;-33
2022/09/18 05:34:50;;;;;;;4.40;1.80;;;;;;;;;;110043;1252;35073;-32
2022/09/18 05:37:23;;;;;;;4.60;2.20;;;;;;;;;;110107;1254;34736;-32
2022/09/18 05:39:55;;;;;;;5.40;2.30;;;;;;;;;;110023;1252;36090;-32
2022/09/18 05:42:27;;;;;;;4.60;2.20;;;;;;;;;;110002;1253;36118;-32
2022/09/18 05:44:59;;;;;;;5.00;2.40;;;;;;;;;;110060;1252;36796;-32
2022/09/18 05:47:34;;;;;;;5.20;2.40;;;;;;;;;;109978;1252;36615;-33
2022/09/18 05:50:09;;;;;;;4.80;2.10;;;;;;;;;;109752;1253;428139;-32
2022/09/18 05:52:41;;;;;;;4.30;2.20;;;;;;;;;;110017;1254;34913;-32
2022/09/18 05:55:14;;;;;;;4.20;2.20;;;;;;;;;;110083;1252;36586;-32
2022/09/18 05:57:46;;;;;;;4.40;2.00;;;;;;;;;;110041;1252;34020;-32
2022/09/18 06:00:21;;;;;;;3.90;1.80;;;;;;;;;;109961;1253;33535;-33
2022/09/18 06:02:59;;;;;;;4.50;2.20;;;;;;;;;;110009;1252;36079;-32
2022/09/18 06:05:33;;;;;;;4.10;1.80;;;;;;;;;;110065;1253;37036;-32
2022/09/18 06:08:07;;;;;;;5.30;2.50;;;;;;;;;;110070;1252;36508;-32
2022/09/18 06:10:41;;;;;;;3.90;2.00;;;;;;;;;;110092;1254;36370;-32
2022/09/18 06:13:17;;;;;;;4.20;2.30;;;;;;;;;;110080;1253;36279;-33
2022/09/18 06:15:51;;;;;;;4.40;1.90;;;;;;;;;;110136;1253;36408;-32
2022/09/18 06:18:23;;;;;;;5.00;2.40;;;;;;;;;;110129;1254;34884;-32
2022/09/18 06:21:00;;;;;;;4.20;2.10;;;;;;;;;;110037;1253;35191;-33
2022/09/18 06:23:32;;;;;;;4.50;2.10;;;;;;;;;;110024;1253;34682;-32
2022/09/18 06:26:08;;;;;;;4.70;2.20;;;;;;;;;;110029;1252;34881;-32
2022/09/18 06:28:40;;;;;;;4.20;2.10;;;;;;;;;;110080;1252;36572;-32
2022/09/18 06:31:13;;;;;;;4.80;2.00;;;;;;;;;;110055;1252;37380;-32
2022/09/18 06:33:47;;;;;;;4.20;2.10;;;;;;;;;;110104;1253;36585;-32
2022/09/18 06:36:19;;;;;;;4.00;2.00;;;;;;;;;;110157;1252;36968;-30
2022/09/18 06:38:54;;;;;;;4.00;1.90;;;;;;;;;;110135;1253;36171;-30
2022/09/18 06:41:28;;;;;;;5.10;2.10;;;;;;;;;;110263;1252;34631;-30
2022/09/18 06:44:00;;;;;;;3.90;1.80;;;;;;;;;;110154;1253;36185;-31
2022/09/18 06:46:32;;;;;;;4.00;2.00;;;;;;;;;;110159;1253;36209;-31
2022/09/18 06:49:05;;;;;;;4.50;1.90;;;;;;;;;;110136;1252;36596;-31
2022/09/18 06:51:37;;;;;;;3.60;2.10;;;;;;;;;;110087;1253;33885;-31
2022/09/18 06:54:09;;;;;;;4.40;2.00;;;;;;;;;;110161;1253;33612;-31
2022/09/18 06:56:41;;;;;;;3.70;2.00;;;;;;;;;;110188;1252;36229;-31
2022/09/18 06:59:13;;;;;;;4.10;2.00;;;;;;;;;;110140;1254;36555;-31
2022/09/18 07:01:48;;;;;;;3.90;1.80;;;;;;;;;;110119;1253;36511;-31
2022/09/18 07:04:20;;;;;;;4.70;1.80;;;;;;;;;;110152;1252;36107;-31
2022/09/18 07:06:52;;;;;;;4.20;1.90;;;;;;;;;;110131;1253;36178;-32
2022/09/18 07:09:24;;;;;;;3.50;1.50;;;;;;;;;;110150;1253;36593;-33
2022/09/18 07:11:57;;;;;;;3.80;1.90;;;;;;;;;;110121;1254;34761;-33
2022/09/18 07:14:29;;;;;;;3.60;1.70;;;;;;;;;;110144;1253;36184;-33
2022/09/18 07:17:02;;;;;;;3.80;1.80;;;;;;;;;;110170;1254;36114;-33
2022/09/18 07:19:34;;;;;;;3.90;1.70;;;;;;;;;;110173;1254;36837;-33
2022/09/18 07:22:07;;;;;;;4.00;1.70;;;;;;;;;;110121;1253;35900;-33
2022/09/18 07:24:39;;;;;;;3.60;1.60;;;;;;;;;;110137;1253;34859;-33
2022/09/18 07:27:11;;;;;;;4.00;1.90;;;;;;;;;;110141;1253;37567;-33
2022/09/18 07:29:43;;;;;;;3.70;1.70;;;;;;;;;;110150;1257;36763;-32
2022/09/18 07:32:15;;;;;;;4.30;1.80;;;;;;;;;;110125;1253;36685;-32
2022/09/18 07:34:47;;;;;;;4.50;1.80;;;;;;;;;;110160;1254;35746;-32
2022/09/18 07:37:19;;;;;;;3.70;1.80;;;;;;;;;;110192;1252;36542;-33
2022/09/18 07:39:52;;;;;;;3.00;1.40;;;;;;;;;;110182;1253;36582;-32
2022/09/18 07:42:25;;;;;;;3.90;1.80;;;;;;;;;;110050;1253;35080;-32
2022/09/18 07:44:57;;;;;;;4.00;1.70;;;;;;;;;;110068;1252;36238;-32
2022/09/18 07:47:29;;;;;;;4.70;1.90;;;;;;;;;;110062;1253;37154;-33
2022/09/18 07:50:02;;;;;;;5.60;2.30;;;;;;;;;;110092;1252;37042;-32
2022/09/18 07:52:34;;;;;;;4.40;1.80;;;;;;;;;;110125;1252;34762;-32
2022/09/18 07:55:13;;;;;;;4.90;1.90;;;;;;;;;;110165;1252;36395;-32
2022/09/18 07:57:45;;;;;;;4.00;1.90;;;;;;;;;;110139;1253;36281;-32
2022/09/18 08:00:21;;;;;;;4.00;1.80;;;;;;;;;;110151;1253;37273;-33
2022/09/18 08:03:03;;;;;;;4.80;2.10;;;;;;;;;;110034;1253;33866;-33
2022/09/18 08:05:35;;;;;;;4.10;1.70;;;;;;;;;;110085;1252;36613;-33
2022/09/18 08:08:12;;;;;;;5.60;2.00;;;;;;;;;;110082;1254;36847;-33
2022/09/18 08:10:46;;;;;;;4.00;1.70;;;;;;;;;;110085;1252;36352;-32
2022/09/18 08:13:18;;;;;;;4.30;1.40;;;;;;;;;;110132;1253;38815;-32
2022/09/18 08:15:50;;;;;;;4.30;1.60;;;;;;;;;;110160;1253;35556;-32
2022/09/18 08:18:23;;;;;;;4.00;1.60;;;;;;;;;;110105;1253;34027;-30
2022/09/18 08:21:02;;;;;;;3.60;1.80;;;;;;;;;;110167;1253;36670;-30
2022/09/18 08:23:35;;;;;;;4.50;1.80;;;;;;;;;;110168;1253;36550;-31
2022/09/18 08:26:09;;;;;;;3.60;1.90;;;;;;;;;;110089;1253;36276;-30
2022/09/18 08:28:40;;;;;;;;;;;;;;;;;;110097;1252;36261;-30
2022/09/18 08:31:12;;;;;;;4.50;1.70;;;;;;;;;;110077;1254;36111;-30
2022/09/18 08:33:45;;;;;;;2.90;1.50;;;;;;;;;;110109;1253;36462;-30
2022/09/18 08:36:18;;;;;;;4.40;1.70;;;;;;;;;;110136;1253;34986;-30
2022/09/18 08:38:54;;;;;;;4.00;1.80;;;;;;;;;;110186;1252;35852;-30
2022/09/18 08:41:42;;;;;;;3.30;1.50;;;;;;;;;;110171;1253;36830;-30
2022/09/18 08:44:23;;;;;;;4.30;1.60;;;;;;;;;;110231;1252;34778;-30
2022/09/18 08:47:05;;;;;;;4.30;1.70;;;;;;;;;;110148;1254;36916;-30
2022/09/18 08:49:46;;;;;;;3.70;1.60;;;;;;;;;;110098;1253;34157;-30
2022/09/18 08:52:33;;;;;;;3.60;1.60;;;;;;;;;;110090;1253;36307;-31
2022/09/18 08:55:20;;;;;;;4.10;1.50;;;;;;;;;;110118;1254;34017;-31
2022/09/18 08:57:58;;;;;;;3.90;1.40;;;;;;;;;;110175;1252;34891;-31
2022/09/18 09:00:43;;;;;;;4.30;1.70;;;;;;;;;;110116;1254;35029;-31
2022/09/18 09:03:29;;;;;;;3.50;1.70;;;;;;;;;;110154;1254;34685;-31
2022/09/18 09:06:09;;;;;;;4.00;1.80;;;;;;;;;;110134;1252;37051;-31
2022/09/18 09:09:22;;;;;;;3.90;1.90;;;;;;;;;;110113;1253;36702;-30
2022/09/18 09:12:02;;;;;;;4.10;1.70;;;;;;;;;;110047;1253;36702;-30
2022/09/18 09:15:01;;;;;;;4.60;1.70;;;;;;;;;;110110;1253;36807;-30
2022/09/18 09:17:45;;;;;;;3.60;1.40;;;;;;;;;;110166;1253;36143;-30
2022/09/18 09:20:40;;;;;;;4.00;1.70;;;;;;;;;;110196;1253;36940;-30
2022/09/18 09:23:38;;;;;;;3.30;1.40;;;;;;;;;;110129;1254;36449;-32
2022/09/18 09:26:16;;;;;;;3.00;1.50;;;;;;;;;;110147;1253;34918;-33
2022/09/18 09:28:58;;;;;;;3.30;1.40;;;;;;;;;;110097;1253;36660;-33
2022/09/18 09:31:37;;;;;;;3.30;1.50;;;;;;;;;;110171;1254;36750;-33
2022/09/18 09:34:18;;;;;;;3.50;1.40;;;;;;;;;;110106;1254;36447;-31
2022/09/18 09:36:56;;;;;;;3.20;1.40;;;;;;;;;;110132;1254;36568;-31
2022/09/18 09:39:39;;;;;;;3.40;1.50;;;;;;;;;;110131;1253;36153;-31
2022/09/18 09:42:21;;;;;;;3.60;1.50;;;;;;;;;;110167;1253;36117;-31
2022/09/18 09:45:01;;;;;;;3.30;1.20;;;;;;;;;;110024;1252;36612;-31
2022/09/18 09:47:47;;;;;;;3.80;1.40;;;;;;;;;;110061;1252;36261;-32
2022/09/18 09:50:38;;;;;;;4.10;1.50;;;;;;;;;;110010;1254;36523;-33
2022/09/18 09:53:14;;;;;;;3.50;1.50;;;;;;;;;;110089;1252;34868;-33
2022/09/18 09:55:57;;;;;;;5.60;1.70;;;;;;;;;;110218;1252;34676;-33
2022/09/18 09:58:48;;;;;;;3.40;1.50;;;;;;;;;;110154;1253;33798;-33
2022/09/18 10:01:27;;;;;;;4.10;1.40;;;;;;;;;;110166;1253;36852;-33
2022/09/18 10:04:18;;;;;;;3.20;1.20;;;;;;;;;;110085;1254;36625;-32
2022/09/18 10:06:59;;;;;;;3.80;1.30;;;;;;;;;;110100;1253;36740;-32
2022/09/18 10:09:45;;;;;;;2.70;1.10;;;;;;;;;;110176;1253;36290;-33
2022/09/18 10:12:30;;;;;;;3.10;1.20;;;;;;;;;;110165;1253;36628;-33
2022/09/18 10:15:17;;;;;;;3.00;1.30;;;;;;;;;;110114;1253;36996;-33
2022/09/18 10:17:55;;;;;;;2.80;1.10;;;;;;;;;;110147;1253;35130;-33
2022/09/18 10:20:32;;;;;;;3.60;1.50;;;;;;;;;;110122;1253;34831;-33
2022/09/18 10:23:13;;;;;;;3.70;1.30;;;;;;;;;;110185;1253;36255;-33
2022/09/18 10:25:52;;;;;;;3.50;1.70;;;;;;;;;;110118;1253;36132;-33
2022/09/18 10:28:30;;;;;;;3.40;1.60;;;;;;;;;;110168;1253;34723;-33
2022/09/18 10:31:08;;;;;;;3.60;1.70;;;;;;;;;;110147;1252;36459;-33
2022/09/18 10:33:46;;;;;;;3.30;1.30;;;;;;;;;;110140;1253;33858;-31
2022/09/18 10:36:32;;;;;;;3.00;1.00;;;;;;;;;;110093;1253;34957;-31
2022/09/18 10:39:28;;;;;;;4.20;1.30;;;;;;;;;;110141;1253;34782;-31
2022/09/18 10:42:04;;;;;;;2.60;1.10;;;;;;;;;;110148;1253;34594;-31
2022/09/18 10:44:40;;;;;;;3.50;1.40;;;;;;;;;;110123;1254;36168;-31
2022/09/18 10:47:22;;;;;;;3.20;1.40;;;;;;;;;;110042;1253;34014;-31
2022/09/18 10:50:00;;;;;;;3.20;1.30;;;;;;;;;;110062;1252;33760;-31
2022/09/18 10:52:39;;;;;;;3.20;1.40;;;;;;;;;;110067;1252;36646;-30
2022/09/18 10:55:19;;;;;;;3.80;1.60;;;;;;;;;;110027;1253;36682;-30
2022/09/18 10:58:12;;;;;;;3.60;1.40;;;;;;;;;;110187;1254;36186;-30
2022/09/18 11:00:52;;;;;;;4.00;1.70;;;;;;;;;;110159;1253;34784;-30
2022/09/18 11:03:37;;;;;;;4.30;1.40;;;;;;;;;;110080;1253;36542;-30
2022/09/18 11:06:17;;;;;;;5.00;1.90;;;;;;;;;;110066;1253;36198;-30
2022/09/18 11:08:55;;;;;;;3.80;1.60;;;;;;;;;;110057;1253;37151;-30
2022/09/18 11:11:32;;;;;;;4.30;1.90;;;;;;;;;;110082;1252;36750;-30
2022/09/18 11:14:07;;;;;;;3.80;1.60;;;;;;;;;;110034;1253;34782;-30
2022/09/18 11:16:45;;;;;;;5.30;1.80;;;;;;;;;;110083;1253;34054;-30
2022/09/18 11:19:26;;;;;;;6.50;2.20;;;;;;;;;;110157;1253;36248;-30
2022/09/18 11:22:04;;;;;;;5.10;2.00;;;;;;;;;;110161;1253;36709;-30
2022/09/18 11:24:39;;;;;;;5.30;2.20;;;;;;;;;;110143;1253;36664;-30
2022/09/18 11:27:23;;;;;;;5.30;1.90;;;;;;;;;;110041;1253;33781;-30
2022/09/18 11:30:15;;;;;;;5.50;2.30;;;;;;;;;;110030;1253;36298;-30
2022/09/18 11:32:52;;;;;;;6.70;2.30;;;;;;;;;;110075;1254;34986;-30
2022/09/18 11:35:25;;;;;;;4.60;2.20;;;;;;;;;;110036;1252;36175;-30
2022/09/18 11:38:05;;;;;;;5.30;2.00;;;;;;;;;;110111;1253;37932;-30
2022/09/18 11:40:52;;;;;;;4.80;1.90;;;;;;;;;;110153;1253;34985;-30
2022/09/18 11:43:29;;;;;;;4.70;1.90;;;;;;;;;;110124;1253;36705;-30
2022/09/18 11:46:17;;;;;;;4.30;1.70;;;;;;;;;;110126;1252;34746;-31
2022/09/18 11:48:56;;;;;;;5.90;2.00;;;;;;;;;;110107;1253;37162;-31
2022/09/18 11:51:45;;;;;;;5.30;1.90;;;;;;;;;;110114;1253;36609;-31
2022/09/18 11:54:31;;;;;;;5.20;2.00;;;;;;;;;;110152;1252;35063;-31
2022/09/18 11:57:10;;;;;;;4.40;2.10;;;;;;;;;;110104;1252;36134;-30
2022/09/18 11:59:57;;;;;;;4.50;2.10;;;;;;;;;;110176;1253;36549;-30
2022/09/18 12:02:39;;;;;;;5.80;1.80;;;;;;;;;;110163;1253;34498;-30
2022/09/18 12:05:22;;;;;;;5.10;1.90;;;;;;;;;;110090;1253;36185;-30
2022/09/18 12:08:19;;;;;;;4.50;1.90;;;;;;;;;;110097;1253;34023;-30
2022/09/18 12:11:01;;;;;;;4.10;1.60;;;;;;;;;;110100;1253;35319;-30
2022/09/18 12:13:47;;;;;;;4.90;1.90;;;;;;;;;;110124;1253;34232;-30
2022/09/18 12:16:26;;;;;;;4.60;2.10;;;;;;;;;;110093;1253;36366;-30
2022/09/18 12:19:08;;;;;;;4.00;1.40;;;;;;;;;;110129;1253;36786;-30
2022/09/18 12:21:50;;;;;;;4.40;1.50;;;;;;;;;;110141;1253;34066;-30
2022/09/18 12:24:31;;;;;;;4.00;1.70;;;;;;;;;;110121;1253;36281;-30
2022/09/18 12:27:26;;;;;;;3.70;1.60;;;;;;;;;;110041;1253;36564;-30
2022/09/18 12:30:10;;;;;;;4.20;1.80;;;;;;;;;;110161;1253;36076;-29
2022/09/18 12:33:06;;;;;;;4.30;1.60;;;;;;;;;;110132;1252;36270;-29
2022/09/18 12:36:00;;;;;;;5.00;2.20;;;;;;;;;;110029;1253;36782;-30
2022/09/18 12:38:53;;;;;;;4.30;1.60;;;;;;;;;;109943;1253;36281;-30
2022/09/18 12:41:43;;;;;;;4.10;1.80;;;;;;;;;;109962;1253;36580;-30
2022/09/18 12:44:44;;;;;;;4.30;1.70;;;;;;;;;;110041;1253;36027;-30
2022/09/18 12:47:47;;;;;;;4.50;1.80;;;;;;;;;;109994;1253;36440;-30
2022/09/18 12:50:34;;;;;;;4.50;1.80;;;;;;;;;;110032;1253;36152;-31
2022/09/18 12:53:22;;;;;;;3.60;1.60;;;;;;;;;;110027;1253;36429;-31
2022/09/18 12:56:14;;;;;;;4.20;1.60;;;;;;;;;;110011;1254;36427;-31
2022/09/18 12:59:08;;;;;;;4.10;1.40;;;;;;;;;;109971;1253;35833;-31
2022/09/18 13:01:49;;;;;;;3.70;1.50;;;;;;;;;;109984;1253;36841;-31
2022/09/18 13:04:28;;;;;;;4.00;1.60;;;;;;;;;;110018;1253;34702;-31
2022/09/18 13:07:07;;;;;;;3.90;1.40;;;;;;;;;;110005;1253;36048;-30
2022/09/18 13:09:44;;;;;;;4.50;1.50;;;;;;;;;;109953;1254;35917;-31
2022/09/18 13:12:28;;;;;;;4.90;1.40;;;;;;;;;;110015;1253;35211;-31
2022/09/18 13:15:22;;;;;;;4.10;1.60;;;;;;;;;;110048;1253;36430;-31
2022/09/18 13:18:03;;;;;;;4.00;1.40;;;;;;;;;;110055;1253;36669;-31
2022/09/18 13:20:41;;;;;;;4.40;1.90;;;;;;;;;;110107;1253;36494;-31
2022/09/18 13:23:21;;;;;;;5.00;1.60;;;;;;;;;;110158;1252;34791;-31
2022/09/18 13:25:56;;;;;;;3.70;1.60;;;;;;;;;;110159;1253;35762;-31
2022/09/18 13:28:30;;;;;;;3.50;1.40;;;;;;;;;;110131;1252;36136;-31
2022/09/18 13:31:27;;;;;;;4.20;1.80;;;;;;;;;;110150;1252;36574;-31
2022/09/18 13:34:03;;;;;;;3.00;1.40;;;;;;;;;;110158;1252;36495;-31
2022/09/18 13:36:38;;;;;;;3.70;1.60;;;;;;;;;;110139;1252;35457;-31
2022/09/18 13:39:25;;;;;;;3.50;1.50;;;;;;;;;;110042;1253;36093;-32
2022/09/18 13:42:00;;;;;;;4.50;1.50;;;;;;;;;;110056;1252;36367;-33
2022/09/18 13:44:36;;;;;;;3.30;1.50;;;;;;;;;;110023;1252;36651;-34
2022/09/18 13:47:17;;;;;;;4.40;1.60;;;;;;;;;;110012;1252;36674;-34
2022/09/18 13:49:54;;;;;;;3.80;1.70;;;;;;;;;;109995;1253;36296;-31
2022/09/18 13:52:45;;;;;;;3.60;1.60;;;;;;;;;;109823;1252;459628;-33
2022/09/18 13:55:50;;;;;;;4.20;2.00;;;;;;;;;;110170;1253;33481;-33
2022/09/18 13:58:54;;;;;;;3.90;1.60;;;;;;;;;;110158;1252;36183;-33
2022/09/18 14:02:01;;;;;;;4.10;1.80;;;;;;;;;;110141;1253;36257;-33
2022/09/18 14:04:58;;;;;;;3.70;1.90;;;;;;;;;;110077;1252;35778;-32
2022/09/18 14:07:54;;;;;;;3.30;1.60;;;;;;;;;;110052;1252;36914;-30
2022/09/18 14:10:33;;;;;;;4.40;1.90;;;;;;;;;;110058;1253;35755;-29
2022/09/18 14:13:29;;;;;;;4.70;2.30;;;;;;;;;;110164;1252;35640;-29
2022/09/18 14:16:08;;;;;;;4.20;2.20;;;;;;;;;;110143;1252;36470;-29
2022/09/18 14:19:00;;;;;;;4.70;2.10;;;;;;;;;;110164;1252;36370;-29
2022/09/18 14:21:38;;;;;;;4.30;2.10;;;;;;;;;;110004;1252;34026;-29
2022/09/18 14:24:56;;;;;;;5.50;1.90;;;;;;;;;;110014;1253;34753;-30
2022/09/18 14:27:43;;;;;;;4.70;2.20;;;;;;;;;;110074;1253;35820;-30
2022/09/18 14:30:34;;;;;;;4.70;2.30;;;;;;;;;;110071;1252;33678;-31
2022/09/18 14:33:18;;;;;;;4.40;2.50;;;;;;;;;;110139;1253;36296;-30
2022/09/18 14:36:07;;;;;;;4.10;2.00;;;;;;;;;;110193;1252;35367;-30
2022/09/18 14:38:42;;;;;;;3.40;2.10;;;;;;;;;;110140;1252;36558;-30
2022/09/18 14:41:21;;;;;;;4.40;2.40;;;;;;;;;;110100;1253;35953;-30
2022/09/18 14:43:58;;;;;;;4.90;2.40;;;;;;;;;;110140;1252;34334;-30
2022/09/18 14:46:33;;;;;;;4.80;2.40;;;;;;;;;;110176;1253;36312;-30
2022/09/18 14:49:26;;;;;;;5.20;2.80;;;;;;;;;;110132;1253;36512;-33
2022/09/18 14:51:58;;;;;;;5.00;2.30;;;;;;;;;;110077;1252;34487;-32
2022/09/18 14:54:35;;;;;;;4.50;2.60;;;;;;;;;;110122;1253;34703;-32
2022/09/18 14:57:14;;;;;;;5.50;2.60;;;;;;;;;;110071;1253;34548;-32
2022/09/18 14:59:55;;;;;;;5.40;3.00;;;;;;;;;;110086;1253;33363;-33
2022/09/18 15:02:33;;;;;;;4.60;3.20;;;;;;;;;;110053;1252;36629;-33
2022/09/18 15:05:14;;;;;;;4.80;3.60;;;;;;;;;;110085;1253;36337;-33
2022/09/18 15:07:57;;;;;;;5.10;3.80;;;;;;;;;;110110;1252;34530;-33
2022/09/18 15:10:30;;;;;;;5.90;4.00;;;;;;;;;;110041;1253;35288;-33
2022/09/18 15:13:08;;;;;;;6.60;3.50;;;;;;;;;;110062;1253;35819;-32
2022/09/18 15:15:44;;;;;;;5.90;3.70;;;;;;;;;;110023;1253;35488;-33
2022/09/18 15:18:28;;;;;;;5.30;3.70;;;;;;;;;;110085;1253;36210;-33
2022/09/18 15:21:03;;;;;;;5.70;3.70;;;;;;;;;;110001;1252;36884;-33
2022/09/18 15:23:38;;;;;;;5.00;3.40;;;;;;;;;;109982;1253;34439;-33
2022/09/18 15:26:16;;;;;;;5.80;3.70;;;;;;;;;;110023;1253;33791;-33
2022/09/18 15:28:54;;;;;;;5.00;3.60;;;;;;;;;;110007;1252;35963;-33
2022/09/18 15:31:32;;;;;;;5.90;3.70;;;;;;;;;;109913;1253;36401;-30
2022/09/18 15:34:11;;;;;;;5.20;3.60;;;;;;;;;;110122;1252;36437;-31
2022/09/18 15:36:44;;;;;;;5.80;3.40;;;;;;;;;;110071;1253;36194;-33
2022/09/18 15:39:33;;;;;;;6.10;3.60;;;;;;;;;;110066;1253;37355;-33